Time;durP1;ratioP1;P1;durP2;ratioP2;P2;SDS_P1;SDS_P2;PMS_P1;PMS_P2;Temp;Humidity;BMP_temperature;BMP_pressure;BME280_temperature;BME280_humidity;BME280_pressure;Samples;Min_cycle;Max_cycle;Signal;HPM_P1;HPM_P2
2022/06/05 00:07:07;;;;;;;4.88;2.45;;;21.50;39.80;;;;;;20996450;28;20488;-71
2022/06/05 00:17:13;;;;;;;3.40;1.85;;;21.60;40.10;;;;;;20998319;28;20496;-70
2022/06/05 00:27:42;;;;;;;3.65;1.90;;;21.40;40.70;;;;;;21023256;28;20506;-71
2022/06/05 00:38:07;;;;;;;3.72;1.90;;;21.30;41.10;;;;;;21022357;28;20049;-70
2022/06/05 00:48:10;;;;;;;6.78;2.13;;;21.30;41.10;;;;;;21024011;28;20040;-71
2022/06/05 00:58:13;;;;;;;3.58;1.95;;;21.20;41.00;;;;;;21021589;28;20153;-61
2022/06/05 01:08:15;;;;;;;3.67;2.00;;;21.20;41.30;;;;;;21022533;28;20246;-62
2022/06/05 01:18:30;;;;;;;3.45;1.98;;;21.00;41.60;;;;;;21020881;28;20101;-63
2022/06/05 01:28:41;;;;;;;4.50;1.90;;;20.90;42.00;;;;;;21019719;28;20060;-61
2022/06/05 01:38:58;;;;;;;4.05;2.00;;;21.00;42.00;;;;;;21006623;28;20048;-62
2022/06/05 01:49:16;;;;;;;4.47;1.77;;;20.70;42.50;;;;;;21005980;28;20052;-62
2022/06/05 01:59:44;;;;;;;4.70;1.55;;;20.90;42.40;;;;;;21005562;28;20052;-68
2022/06/05 02:10:08;;;;;;;3.92;1.73;;;20.90;42.60;;;;;;21005018;28;20190;-65
2022/06/05 02:20:13;;;;;;;4.90;1.60;;;20.90;42.70;;;;;;21005118;28;20063;-65
2022/06/05 02:30:20;;;;;;;5.22;1.83;;;21.00;42.70;;;;;;21004386;28;20040;-63
2022/06/05 02:40:49;;;;;;;3.60;1.40;;;20.80;43.20;;;;;;21002835;28;20044;-60
2022/06/05 02:50:59;;;;;;;4.15;2.05;;;20.70;43.10;;;;;;21002672;28;20491;-64
2022/06/05 03:11:26;;;;;;;2.90;1.50;;;20.60;43.90;;;;;;20999549;28;20071;-61
2022/06/05 03:21:35;;;;;;;3.30;1.35;;;20.50;44.10;;;;;;20998991;28;20044;-63
2022/06/05 03:31:44;;;;;;;2.13;1.40;;;20.40;44.20;;;;;;20999099;28;20476;-61
2022/06/05 03:41:49;;;;;;;4.45;1.65;;;20.40;44.40;;;;;;20997239;28;20523;-69
2022/06/05 03:52:03;;;;;;;3.78;1.75;;;20.30;44.50;;;;;;20995787;28;20040;-64
2022/06/05 04:02:06;;;;;;;3.20;1.77;;;20.20;44.70;;;;;;20996698;28;20135;-61
2022/06/05 04:12:10;;;;;;;4.13;1.77;;;20.30;44.60;;;;;;20996183;28;20412;-68
2022/06/05 04:22:13;;;;;;;3.80;1.80;;;20.20;44.90;;;;;;20996392;28;20080;-61
2022/06/05 04:32:17;;;;;;;;;;;20.20;45.20;;;;;;20995524;28;20339;-70
2022/06/05 04:42:21;;;;;;;4.10;1.65;;;19.90;45.40;;;;;;20994641;28;20081;-62
2022/06/05 04:52:22;;;;;;;6.00;2.28;;;20.00;45.80;;;;;;20994010;28;20137;-60
2022/06/05 05:02:24;;;;;;;8.23;4.18;;;20.00;45.40;;;;;;20993861;28;20523;-62
2022/06/05 05:12:26;;;;;;;5.13;4.13;;;19.70;45.70;;;;;;21008282;28;20049;-61
2022/06/05 05:22:29;;;;;;;5.40;2.10;;;19.50;46.20;;;;;;21009026;28;20052;-66
2022/06/05 05:32:31;;;;;;;6.30;2.47;;;19.50;46.70;;;;;;21007465;28;20052;-60
2022/06/05 05:42:33;;;;;;;4.38;2.30;;;19.50;47.00;;;;;;21006877;28;20052;-68
2022/06/05 05:52:36;;;;;;;6.80;1.85;;;19.60;47.10;;;;;;21005688;28;20052;-71
2022/06/05 06:02:38;;;;;;;6.53;2.07;;;19.70;47.30;;;;;;21005743;28;20053;-68
2022/06/05 06:12:41;;;;;;;3.90;1.73;;;19.80;47.40;;;;;;21004541;28;20049;-69
2022/06/05 06:22:43;;;;;;;5.70;2.22;;;19.90;47.20;;;;;;21003020;28;20063;-65
2022/06/05 06:32:45;;;;;;;5.65;1.65;;;20.00;47.20;;;;;;21004175;28;20277;-62
2022/06/05 06:42:48;;;;;;;5.13;1.85;;;20.10;47.20;;;;;;21002371;28;20064;-67
2022/06/05 06:52:50;;;;;;;4.05;1.55;;;;;;;;;;21001021;28;20488;-69
2022/06/05 07:02:52;;;;;;;4.53;1.83;;;;;;;;;;21000285;28;20055;-70
2022/06/05 07:12:54;;;;;;;4.38;1.92;;;;;;;;;;20999501;28;20051;-70
2022/06/05 07:22:56;;;;;;;5.53;1.95;;;;;;;;;;20998486;28;20404;-69
2022/06/05 07:32:58;;;;;;;6.40;2.40;;;;;;;;;;20996457;28;20051;-71
2022/06/05 07:43:00;;;;;;;4.90;1.93;;;;;;;;;;20997247;28;20048;-70
2022/06/05 08:03:24;;;;;;;8.27;2.22;;;;;;;;;;20995884;28;20045;-71
2022/06/05 08:13:27;;;;;;;3.92;2.05;;;;;;;;;;20995969;28;20480;-63
2022/06/05 08:23:30;;;;;;;2.72;1.48;;;;;;;;;;20965266;28;20049;-57
2022/06/05 08:33:32;;;;;;;;;;;;;;;;;;20910617;28;20060;-59
2022/06/05 08:43:47;;;;;;;3.40;1.87;;;;;;;;;;20919546;28;20011;-58
2022/06/05 08:54:02;;;;;;;2.95;1.35;;;;;;;;;;20924255;28;20063;-58
2022/06/05 09:04:23;;;;;;;3.08;1.33;;;;;;;;;;20925054;28;20080;-59
2022/06/05 09:14:47;;;;;;;1.50;1.02;;;;;;;;;;20923636;28;20048;-59
2022/06/05 09:25:05;;;;;;;3.75;1.08;;;;;;;;;;20923794;28;20507;-59
2022/06/05 09:35:07;;;;;;;4.82;1.25;;;;;;;;;;20922206;28;20044;-57
2022/06/05 09:45:18;;;;;;;4.57;1.50;;;25.90;34.60;;;;;;20922604;28;20064;-56
2022/06/05 09:55:26;;;;;;;2.72;1.15;;;26.20;33.90;;;;;;20920040;28;20401;-57
2022/06/05 10:05:34;;;;;;;4.15;1.10;;;26.40;33.60;;;;;;20919549;28;20152;-60
2022/06/05 10:15:59;;;;;;;1.88;0.75;;;26.70;32.30;;;;;;20918418;28;20079;-63
2022/06/05 10:26:28;;;;;;;2.03;0.80;;;26.60;33.10;;;;;;20919160;28;20053;-65
2022/06/05 10:36:51;;;;;;;2.80;0.93;;;26.40;32.70;;;;;;20918246;28;20053;-59
2022/06/05 10:46:59;;;;;;;3.35;1.63;;;;;;;;;;20918984;28;20064;-63
2022/06/05 10:57:17;;;;;;;2.25;0.98;;;;;;;;;;20918155;28;20507;-61
2022/06/05 11:07:33;;;;;;;2.95;0.75;;;;;;;;;;20917192;28;20048;-65
2022/06/05 11:17:42;;;;;;;1.63;0.77;;;;;;;;;;20916048;28;20057;-59
2022/06/05 11:27:51;;;;;;;2.33;0.88;;;;;;;;;;20914834;28;20080;-64
2022/06/05 11:37:56;;;;;;;1.42;0.70;;;;;;;;;;20913505;28;20049;-65
2022/06/05 11:48:23;;;;;;;4.75;3.28;;;;;;;;;;20912933;28;20049;-65
2022/06/05 11:58:57;;;;;;;3.90;1.42;;;;;;;;;;20912590;28;20136;-65
2022/06/05 12:09:01;;;;;;;1.08;0.70;;;;;;;;;;20820837;28;20057;-65
2022/06/05 12:19:18;;;;;;;2.42;1.10;;;;;;;;;;20819549;28;20537;-66
2022/06/05 12:29:24;;;;;;;1.13;0.75;;;;;;;;;;20818932;28;20179;-61
2022/06/05 12:39:36;;;;;;;3.15;1.17;;;;;;;;;;20852725;28;20055;-59
2022/06/05 12:50:05;;;;;;;3.28;0.95;;;;;;;;;;20910072;28;20504;-61
2022/06/05 13:00:13;;;;;;;3.38;1.05;;;;;;;;;;20817575;28;20573;-64
2022/06/05 13:10:18;;;;;;;2.05;0.90;;;;;;;;;;20818138;28;20087;-61
2022/06/05 13:20:25;;;;;;;2.25;0.85;;;;;;;;;;20817708;28;20581;-65
2022/06/05 13:30:28;;;;;;;4.60;0.70;;;;;;;;;;20848738;28;20144;-65
2022/06/05 13:40:30;;;;;;;1.63;0.93;;;;;;;;;;20923285;28;20056;-63
2022/06/05 13:50:45;;;;;;;2.67;1.40;;;;;;;;;;20921865;28;20045;-65
2022/06/05 14:01:05;;;;;;;1.98;0.70;;;;;;;;;;20921353;28;20102;-65
2022/06/05 14:11:07;;;;;;;7.10;5.35;;;;;;;;;;20919037;28;20073;-65
2022/06/05 14:21:15;;;;;;;3.88;1.75;;;;;;;;;;20918823;28;20382;-64
2022/06/05 14:31:18;;;;;;;14.40;11.93;;;;;;;;;;20920098;28;20053;-60
2022/06/05 14:41:22;;;;;;;3.08;1.83;;;;;;;;;;20919742;28;20405;-60
2022/06/05 14:51:32;;;;;;;2.20;0.70;;;;;;;;;;20919082;28;20496;-62
2022/06/05 15:01:55;;;;;;;2.38;0.90;;;;;;;;;;20917263;28;20060;-66
2022/06/05 15:11:56;;;;;;;1.92;0.80;;;;;;;;;;20915727;28;20053;-64
2022/06/05 15:22:01;;;;;;;0.85;0.57;;;;;;;;;;20914989;28;20048;-66
2022/06/05 15:32:13;;;;;;;2.85;0.90;;;;;;;;;;20914434;28;20053;-66
2022/06/05 15:42:15;;;;;;;1.60;0.60;;;;;;;;;;20913523;28;20477;-63
2022/06/05 15:52:20;;;;;;;1.90;0.50;;;;;;;;;;20912270;28;20045;-64
2022/06/05 16:02:27;;;;;;;2.25;0.80;;;;;;;;;;20912328;28;20147;-63
2022/06/05 16:12:35;;;;;;;1.02;0.70;;;;;;;;;;20911579;28;20045;-58
2022/06/05 16:22:37;;;;;;;1.20;0.57;;;;;;;;;;20911018;28;20504;-60
2022/06/05 16:32:39;;;;;;;1.52;0.75;;;;;;;;;;20911968;28;20068;-62
2022/06/05 16:42:41;;;;;;;1.80;0.75;;;;;;;;;;20910551;28;20063;-65
2022/06/05 16:52:45;;;;;;;3.50;0.90;;;;;;;;;;20910938;28;20087;-64
2022/06/05 17:02:47;;;;;;;2.13;1.05;;;;;;;;;;20915382;28;20140;-67
2022/06/05 17:12:50;;;;;;;1.50;0.70;;;;;;;;;;20924758;28;20056;-64
2022/06/05 17:22:56;;;;;;;1.60;1.10;;;;;;;;;;20923845;28;20053;-64
2022/06/05 17:33:08;;;;;;;1.90;0.80;;;;;;;;;;20923791;28;20049;-66
2022/06/05 17:43:10;;;;;;;1.58;0.85;;;;;;;;;;20922813;28;20147;-63
2022/06/05 17:53:15;;;;;;;1.52;0.90;;;;;;;;;;20920926;28;20390;-64
2022/06/05 18:03:18;;;;;;;1.83;0.90;;;;;;;;;;20921236;28;20505;-61
2022/06/05 18:13:23;;;;;;;6.07;1.63;;;;;;;;;;20920290;28;20091;-65
2022/06/05 18:23:28;;;;;;;1.85;1.08;;;;;;;;;;20919497;28;20044;-65
2022/06/05 18:33:36;;;;;;;2.67;0.90;;;;;;;;;;20918937;28;20045;-63
2022/06/05 18:43:38;;;;;;;4.75;1.50;;;;;;;;;;20918357;28;20520;-65
2022/06/05 18:53:40;;;;;;;2.50;1.20;;;;;;;;;;20916313;28;20053;-68
2022/06/05 19:03:42;;;;;;;2.65;1.42;;;;;;;;;;20914998;28;20092;-64
2022/06/05 19:13:59;;;;;;;4.57;1.20;;;;;;;;;;20915263;28;20084;-66
2022/06/05 19:24:03;;;;;;;2.60;1.40;;;;;;;;;;20913865;28;20150;-66
2022/06/05 19:34:18;;;;;;;4.10;1.60;;;;;;;;;;20913613;28;20513;-67
2022/06/05 19:44:26;;;;;;;2.78;1.63;;;;;;;;;;20913531;28;20509;-66
2022/06/05 19:54:34;;;;;;;5.82;1.77;;;;;;;;;;20912274;28;20103;-68
2022/06/05 20:04:47;;;;;;;3.55;2.03;;;;;;;;;;20910771;28;20068;-66
2022/06/05 20:14:59;;;;;;;3.42;2.00;;;;;;;;;;20912590;28;20056;-65
2022/06/05 20:25:02;;;;;;;4.47;2.97;;;;;;;;;;20911105;28;20057;-64
2022/06/05 20:35:06;;;;;;;4.50;2.65;;;;;;;;;;20911717;28;20055;-62
2022/06/05 20:45:19;;;;;;;3.78;2.80;;;;;;;;;;20928544;28;20067;-65
2022/06/05 20:55:23;;;;;;;5.28;2.10;;;;;;;;;;20927879;28;20056;-68
2022/06/05 21:26:07;;;;;;;6.50;4.60;;;;;;;;;;20925952;28;20045;-64
2022/06/05 21:36:10;;;;;;;7.32;4.28;;;;;;;;;;20924054;28;20492;-64
2022/06/05 21:46:14;;;;;;;4.55;1.98;;;;;;;;;;20921776;28;20102;-65
2022/06/05 21:56:29;;;;;;;5.20;2.15;;;;;;;;;;20922454;28;20051;-69
2022/06/05 22:06:32;;;;;;;7.20;2.70;;;;;;;;;;20922904;28;20501;-67
2022/06/05 22:16:35;;;;;;;6.43;2.65;;;;;;;;;;20920713;28;20560;-63
2022/06/05 22:26:38;;;;;;;4.53;2.25;;;;;;;;;;20919997;28;20049;-64
2022/06/05 22:36:40;;;;;;;;;;;;;;;;;;20919977;28;20048;-59
2022/06/05 22:46:42;;;;;;;5.67;2.10;;;;;;;;;;20918145;28;19933;-66
2022/06/05 22:56:44;;;;;;;3.35;2.30;;;;;;;;;;20917785;28;20128;-63
2022/06/05 23:06:46;;;;;;;6.80;4.22;;;;;;;;;;20916873;28;20539;-60
2022/06/05 23:16:48;;;;;;;8.48;3.08;;;;;;;;;;20916277;28;20049;-60
2022/06/05 23:26:50;;;;;;;6.88;3.65;;;;;;;;;;20915792;28;20521;-63
2022/06/05 23:36:52;;;;;;;;;;;;;;;;;;20915250;28;20048;-65
2022/06/05 23:46:54;;;;;;;5.47;2.40;;;;;;;;;;20914900;28;19931;-59
